sensor_id;sensor_type;location;lat;lon;timestamp;P1;durP1;ratioP1;P2;durP2;ratioP2
17363;SDS011;8799;43.594;13.526;2023-02-28T00:01:13;4.77;;;1.53;;
17363;SDS011;8799;43.594;13.526;2023-02-28T00:03:42;1.47;;;1.30;;
17363;SDS011;8799;43.594;13.526;2023-02-28T00:06:10;1.53;;;1.20;;
17363;SDS011;8799;43.594;13.526;2023-02-28T00:08:39;3.27;;;1.37;;
17363;SDS011;8799;43.594;13.526;2023-02-28T00:11:10;3.13;;;1.33;;
17363;SDS011;8799;43.594;13.526;2023-02-28T00:13:40;1.20;;;1.00;;
17363;SDS011;8799;43.594;13.526;2023-02-28T00:16:09;2.80;;;1.40;;
17363;SDS011;8799;43.594;13.526;2023-02-28T00:18:39;4.97;;;1.40;;
17363;SDS011;8799;43.594;13.526;2023-02-28T00:21:08;2.13;;;1.17;;
17363;SDS011;8799;43.594;13.526;2023-02-28T00:23:36;3.70;;;1.37;;
17363;SDS011;8799;43.594;13.526;2023-02-28T00:26:05;3.00;;;1.50;;
17363;SDS011;8799;43.594;13.526;2023-02-28T00:28:33;2.10;;;1.67;;
17363;SDS011;8799;43.594;13.526;2023-02-28T00:31:01;2.47;;;1.20;;
17363;SDS011;8799;43.594;13.526;2023-02-28T00:33:30;3.07;;;1.33;;
17363;SDS011;8799;43.594;13.526;2023-02-28T00:36:04;1.83;;;1.10;;
17363;SDS011;8799;43.594;13.526;2023-02-28T00:38:33;3.17;;;1.60;;
17363;SDS011;8799;43.594;13.526;2023-02-28T00:41:01;3.23;;;1.50;;
17363;SDS011;8799;43.594;13.526;2023-02-28T00:43:33;1.17;;;1.10;;
17363;SDS011;8799;43.594;13.526;2023-02-28T00:46:02;2.83;;;1.70;;
17363;SDS011;8799;43.594;13.526;2023-02-28T00:48:31;2.07;;;1.37;;
17363;SDS011;8799;43.594;13.526;2023-02-28T00:50:59;2.63;;;1.40;;
17363;SDS011;8799;43.594;13.526;2023-02-28T00:53:28;2.40;;;1.23;;
17363;SDS011;8799;43.594;13.526;2023-02-28T00:55:57;2.10;;;1.10;;
17363;SDS011;8799;43.594;13.526;2023-02-28T00:58:25;2.43;;;1.27;;
17363;SDS011;8799;43.594;13.526;2023-02-28T01:00:55;2.67;;;1.30;;
17363;SDS011;8799;43.594;13.526;2023-02-28T01:03:23;4.27;;;1.57;;
17363;SDS011;8799;43.594;13.526;2023-02-28T01:05:51;2.53;;;1.60;;
17363;SDS011;8799;43.594;13.526;2023-02-28T01:08:20;1.80;;;1.30;;
17363;SDS011;8799;43.594;13.526;2023-02-28T01:10:48;2.03;;;1.23;;
17363;SDS011;8799;43.594;13.526;2023-02-28T01:13:16;3.97;;;1.43;;
17363;SDS011;8799;43.594;13.526;2023-02-28T01:15:46;3.97;;;1.43;;
17363;SDS011;8799;43.594;13.526;2023-02-28T01:18:18;1.67;;;1.13;;
17363;SDS011;8799;43.594;13.526;2023-02-28T01:20:47;3.10;;;1.37;;
17363;SDS011;8799;43.594;13.526;2023-02-28T01:23:16;1.30;;;1.20;;
17363;SDS011;8799;43.594;13.526;2023-02-28T01:25:45;1.83;;;1.40;;
17363;SDS011;8799;43.594;13.526;2023-02-28T01:28:13;2.80;;;1.67;;
17363;SDS011;8799;43.594;13.526;2023-02-28T01:30:41;1.27;;;1.03;;
17363;SDS011;8799;43.594;13.526;2023-02-28T01:33:09;2.10;;;1.47;;
17363;SDS011;8799;43.594;13.526;2023-02-28T01:35:38;1.53;;;1.40;;
17363;SDS011;8799;43.594;13.526;2023-02-28T01:38:06;2.23;;;1.70;;
17363;SDS011;8799;43.594;13.526;2023-02-28T01:40:34;2.20;;;1.33;;
17363;SDS011;8799;43.594;13.526;2023-02-28T01:43:02;2.83;;;1.77;;
17363;SDS011;8799;43.594;13.526;2023-02-28T01:45:32;1.73;;;1.23;;
17363;SDS011;8799;43.594;13.526;2023-02-28T01:48:03;2.33;;;1.60;;
17363;SDS011;8799;43.594;13.526;2023-02-28T01:50:36;1.83;;;1.20;;
17363;SDS011;8799;43.594;13.526;2023-02-28T01:53:08;2.47;;;1.53;;
17363;SDS011;8799;43.594;13.526;2023-02-28T01:55:40;4.77;;;1.90;;
17363;SDS011;8799;43.594;13.526;2023-02-28T01:58:09;4.80;;;1.90;;
17363;SDS011;8799;43.594;13.526;2023-02-28T02:00:37;2.13;;;1.23;;
17363;SDS011;8799;43.594;13.526;2023-02-28T02:03:08;3.47;;;1.60;;
17363;SDS011;8799;43.594;13.526;2023-02-28T02:05:42;7.00;;;1.57;;
17363;SDS011;8799;43.594;13.526;2023-02-28T02:08:12;3.10;;;1.53;;
17363;SDS011;8799;43.594;13.526;2023-02-28T02:10:44;3.80;;;1.70;;
17363;SDS011;8799;43.594;13.526;2023-02-28T02:13:19;2.03;;;1.20;;
17363;SDS011;8799;43.594;13.526;2023-02-28T02:16:11;3.03;;;1.50;;
17363;SDS011;8799;43.594;13.526;2023-02-28T02:18:51;4.60;;;1.43;;
17363;SDS011;8799;43.594;13.526;2023-02-28T02:21:33;3.80;;;1.73;;
17363;SDS011;8799;43.594;13.526;2023-02-28T02:27:17;1.37;;;1.20;;
17363;SDS011;8799;43.594;13.526;2023-02-28T02:32:53;3.13;;;1.47;;
17363;SDS011;8799;43.594;13.526;2023-02-28T02:35:39;3.17;;;1.60;;
17363;SDS011;8799;43.594;13.526;2023-02-28T02:38:15;5.20;;;1.83;;
17363;SDS011;8799;43.594;13.526;2023-02-28T02:40:54;2.37;;;1.30;;
17363;SDS011;8799;43.594;13.526;2023-02-28T02:43:25;6.20;;;1.60;;
17363;SDS011;8799;43.594;13.526;2023-02-28T02:45:56;2.37;;;1.50;;
17363;SDS011;8799;43.594;13.526;2023-02-28T02:48:29;3.30;;;1.87;;
17363;SDS011;8799;43.594;13.526;2023-02-28T02:51:01;5.30;;;1.83;;
17363;SDS011;8799;43.594;13.526;2023-02-28T02:53:37;1.90;;;1.40;;
17363;SDS011;8799;43.594;13.526;2023-02-28T02:56:08;3.37;;;1.87;;
17363;SDS011;8799;43.594;13.526;2023-02-28T02:58:38;2.07;;;1.63;;
17363;SDS011;8799;43.594;13.526;2023-02-28T03:01:12;1.50;;;1.30;;
17363;SDS011;8799;43.594;13.526;2023-02-28T03:03:54;2.57;;;1.63;;
17363;SDS011;8799;43.594;13.526;2023-02-28T03:06:25;8.67;;;1.43;;
17363;SDS011;8799;43.594;13.526;2023-02-28T03:08:54;2.57;;;1.30;;
17363;SDS011;8799;43.594;13.526;2023-02-28T03:11:21;2.93;;;1.47;;
17363;SDS011;8799;43.594;13.526;2023-02-28T03:14:03;2.90;;;1.40;;
17363;SDS011;8799;43.594;13.526;2023-02-28T03:16:46;2.23;;;1.60;;
17363;SDS011;8799;43.594;13.526;2023-02-28T03:19:26;1.70;;;1.40;;
17363;SDS011;8799;43.594;13.526;2023-02-28T03:22:10;4.33;;;1.70;;
17363;SDS011;8799;43.594;13.526;2023-02-28T03:24:49;2.13;;;1.33;;
17363;SDS011;8799;43.594;13.526;2023-02-28T03:27:24;1.90;;;1.30;;
17363;SDS011;8799;43.594;13.526;2023-02-28T03:29:57;2.30;;;1.50;;
17363;SDS011;8799;43.594;13.526;2023-02-28T03:32:33;3.83;;;1.63;;
17363;SDS011;8799;43.594;13.526;2023-02-28T03:35:06;3.77;;;1.63;;
17363;SDS011;8799;43.594;13.526;2023-02-28T03:37:39;4.53;;;1.63;;
17363;SDS011;8799;43.594;13.526;2023-02-28T03:40:10;5.20;;;2.10;;
17363;SDS011;8799;43.594;13.526;2023-02-28T03:42:41;3.27;;;1.60;;
17363;SDS011;8799;43.594;13.526;2023-02-28T03:45:13;2.23;;;1.63;;
17363;SDS011;8799;43.594;13.526;2023-02-28T03:47:45;2.57;;;1.73;;
17363;SDS011;8799;43.594;13.526;2023-02-28T03:50:17;3.43;;;1.57;;
17363;SDS011;8799;43.594;13.526;2023-02-28T03:52:49;3.50;;;1.70;;
17363;SDS011;8799;43.594;13.526;2023-02-28T03:55:20;3.20;;;1.90;;
17363;SDS011;8799;43.594;13.526;2023-02-28T03:57:51;2.17;;;1.70;;
17363;SDS011;8799;43.594;13.526;2023-02-28T04:00:25;2.83;;;1.90;;
17363;SDS011;8799;43.594;13.526;2023-02-28T04:02:56;1.87;;;1.50;;
17363;SDS011;8799;43.594;13.526;2023-02-28T04:05:24;4.00;;;1.67;;
17363;SDS011;8799;43.594;13.526;2023-02-28T04:07:55;4.43;;;1.93;;
17363;SDS011;8799;43.594;13.526;2023-02-28T04:10:31;2.50;;;1.70;;
17363;SDS011;8799;43.594;13.526;2023-02-28T04:12:59;2.13;;;1.70;;
17363;SDS011;8799;43.594;13.526;2023-02-28T04:15:27;3.60;;;2.10;;
17363;SDS011;8799;43.594;13.526;2023-02-28T04:17:55;2.57;;;1.60;;
17363;SDS011;8799;43.594;13.526;2023-02-28T04:20:24;4.23;;;1.90;;
17363;SDS011;8799;43.594;13.526;2023-02-28T04:22:52;2.67;;;1.47;;
17363;SDS011;8799;43.594;13.526;2023-02-28T04:25:21;2.70;;;1.70;;
17363;SDS011;8799;43.594;13.526;2023-02-28T04:27:49;2.90;;;1.80;;
17363;SDS011;8799;43.594;13.526;2023-02-28T04:30:18;2.27;;;1.40;;
17363;SDS011;8799;43.594;13.526;2023-02-28T04:32:46;2.37;;;1.40;;
17363;SDS011;8799;43.594;13.526;2023-02-28T04:35:14;2.83;;;1.93;;
17363;SDS011;8799;43.594;13.526;2023-02-28T04:37:41;2.27;;;1.57;;
17363;SDS011;8799;43.594;13.526;2023-02-28T04:40:09;3.73;;;1.80;;
17363;SDS011;8799;43.594;13.526;2023-02-28T04:42:39;3.60;;;2.13;;
17363;SDS011;8799;43.594;13.526;2023-02-28T04:45:08;6.00;;;2.00;;
17363;SDS011;8799;43.594;13.526;2023-02-28T04:47:36;2.73;;;1.80;;
17363;SDS011;8799;43.594;13.526;2023-02-28T04:50:04;3.93;;;1.83;;
17363;SDS011;8799;43.594;13.526;2023-02-28T04:52:32;4.93;;;1.97;;
17363;SDS011;8799;43.594;13.526;2023-02-28T04:55:00;5.37;;;1.97;;
17363;SDS011;8799;43.594;13.526;2023-02-28T04:57:27;2.43;;;1.97;;
17363;SDS011;8799;43.594;13.526;2023-02-28T04:59:56;3.93;;;1.50;;
17363;SDS011;8799;43.594;13.526;2023-02-28T05:02:24;2.73;;;1.67;;
17363;SDS011;8799;43.594;13.526;2023-02-28T05:04:52;2.50;;;1.70;;
17363;SDS011;8799;43.594;13.526;2023-02-28T05:07:21;2.73;;;2.03;;
17363;SDS011;8799;43.594;13.526;2023-02-28T05:09:48;5.20;;;2.03;;
17363;SDS011;8799;43.594;13.526;2023-02-28T05:12:16;8.37;;;1.67;;
17363;SDS011;8799;43.594;13.526;2023-02-28T05:14:44;3.30;;;1.93;;
17363;SDS011;8799;43.594;13.526;2023-02-28T05:17:13;3.43;;;2.23;;
17363;SDS011;8799;43.594;13.526;2023-02-28T05:19:45;3.77;;;2.20;;
17363;SDS011;8799;43.594;13.526;2023-02-28T05:22:14;2.93;;;1.80;;
17363;SDS011;8799;43.594;13.526;2023-02-28T05:24:43;3.43;;;2.10;;
17363;SDS011;8799;43.594;13.526;2023-02-28T05:27:11;3.10;;;2.00;;
17363;SDS011;8799;43.594;13.526;2023-02-28T05:29:39;3.23;;;1.80;;
17363;SDS011;8799;43.594;13.526;2023-02-28T05:32:09;3.17;;;2.13;;
17363;SDS011;8799;43.594;13.526;2023-02-28T05:34:39;7.80;;;2.53;;
17363;SDS011;8799;43.594;13.526;2023-02-28T05:37:08;5.03;;;2.33;;
17363;SDS011;8799;43.594;13.526;2023-02-28T05:39:38;4.97;;;2.13;;
17363;SDS011;8799;43.594;13.526;2023-02-28T05:42:07;4.13;;;1.80;;
17363;SDS011;8799;43.594;13.526;2023-02-28T05:44:35;4.13;;;2.20;;
17363;SDS011;8799;43.594;13.526;2023-02-28T05:47:02;2.67;;;1.70;;
17363;SDS011;8799;43.594;13.526;2023-02-28T05:49:30;4.90;;;2.03;;
17363;SDS011;8799;43.594;13.526;2023-02-28T05:52:01;4.13;;;2.03;;
17363;SDS011;8799;43.594;13.526;2023-02-28T05:54:28;4.73;;;2.10;;
17363;SDS011;8799;43.594;13.526;2023-02-28T05:56:56;7.33;;;2.50;;
17363;SDS011;8799;43.594;13.526;2023-02-28T05:59:25;4.37;;;2.10;;
17363;SDS011;8799;43.594;13.526;2023-02-28T06:01:52;12.30;;;2.87;;
17363;SDS011;8799;43.594;13.526;2023-02-28T06:04:20;2.47;;;1.73;;
17363;SDS011;8799;43.594;13.526;2023-02-28T06:06:48;5.23;;;2.33;;
17363;SDS011;8799;43.594;13.526;2023-02-28T06:09:18;3.90;;;2.10;;
17363;SDS011;8799;43.594;13.526;2023-02-28T06:11:47;7.73;;;2.17;;
17363;SDS011;8799;43.594;13.526;2023-02-28T06:14:16;8.03;;;2.30;;
17363;SDS011;8799;43.594;13.526;2023-02-28T06:16:45;5.73;;;2.30;;
17363;SDS011;8799;43.594;13.526;2023-02-28T06:19:13;6.90;;;2.73;;
17363;SDS011;8799;43.594;13.526;2023-02-28T06:21:40;8.80;;;2.53;;
17363;SDS011;8799;43.594;13.526;2023-02-28T06:24:08;10.10;;;2.73;;
17363;SDS011;8799;43.594;13.526;2023-02-28T06:26:38;11.27;;;2.17;;
17363;SDS011;8799;43.594;13.526;2023-02-28T06:29:06;7.63;;;2.40;;
17363;SDS011;8799;43.594;13.526;2023-02-28T06:31:34;6.60;;;2.50;;
17363;SDS011;8799;43.594;13.526;2023-02-28T06:34:02;10.47;;;1.87;;
17363;SDS011;8799;43.594;13.526;2023-02-28T06:36:32;8.77;;;2.73;;
17363;SDS011;8799;43.594;13.526;2023-02-28T06:39:00;7.50;;;2.27;;
17363;SDS011;8799;43.594;13.526;2023-02-28T06:41:29;6.37;;;2.13;;
17363;SDS011;8799;43.594;13.526;2023-02-28T06:43:58;4.40;;;2.50;;
17363;SDS011;8799;43.594;13.526;2023-02-28T06:46:27;6.17;;;3.63;;
17363;SDS011;8799;43.594;13.526;2023-02-28T06:48:55;12.63;;;2.90;;
17363;SDS011;8799;43.594;13.526;2023-02-28T06:51:23;6.30;;;2.60;;
17363;SDS011;8799;43.594;13.526;2023-02-28T06:53:52;6.83;;;2.10;;
17363;SDS011;8799;43.594;13.526;2023-02-28T06:56:20;4.53;;;1.90;;
17363;SDS011;8799;43.594;13.526;2023-02-28T06:58:48;11.07;;;2.20;;
17363;SDS011;8799;43.594;13.526;2023-02-28T07:01:19;7.87;;;2.40;;
17363;SDS011;8799;43.594;13.526;2023-02-28T07:03:47;5.10;;;2.50;;
17363;SDS011;8799;43.594;13.526;2023-02-28T07:06:17;5.83;;;2.07;;
17363;SDS011;8799;43.594;13.526;2023-02-28T07:08:45;7.80;;;2.33;;
17363;SDS011;8799;43.594;13.526;2023-02-28T07:11:13;9.17;;;2.07;;
17363;SDS011;8799;43.594;13.526;2023-02-28T07:13:40;5.10;;;3.00;;
17363;SDS011;8799;43.594;13.526;2023-02-28T07:16:09;8.67;;;2.20;;
17363;SDS011;8799;43.594;13.526;2023-02-28T07:18:39;5.63;;;2.40;;
17363;SDS011;8799;43.594;13.526;2023-02-28T07:21:08;6.10;;;2.50;;
17363;SDS011;8799;43.594;13.526;2023-02-28T07:23:36;7.97;;;2.47;;
17363;SDS011;8799;43.594;13.526;2023-02-28T07:26:05;6.93;;;2.27;;
17363;SDS011;8799;43.594;13.526;2023-02-28T07:28:34;5.73;;;2.57;;
17363;SDS011;8799;43.594;13.526;2023-02-28T07:31:05;5.57;;;2.30;;
17363;SDS011;8799;43.594;13.526;2023-02-28T07:33:34;5.40;;;2.30;;
17363;SDS011;8799;43.594;13.526;2023-02-28T07:36:05;7.70;;;2.53;;
17363;SDS011;8799;43.594;13.526;2023-02-28T07:38:34;5.00;;;2.57;;
17363;SDS011;8799;43.594;13.526;2023-02-28T07:41:02;5.73;;;2.43;;
17363;SDS011;8799;43.594;13.526;2023-02-28T07:43:31;9.23;;;2.30;;
17363;SDS011;8799;43.594;13.526;2023-02-28T07:46:01;4.80;;;2.13;;
17363;SDS011;8799;43.594;13.526;2023-02-28T07:48:30;6.20;;;2.57;;
17363;SDS011;8799;43.594;13.526;2023-02-28T07:50:58;7.67;;;2.17;;
17363;SDS011;8799;43.594;13.526;2023-02-28T07:53:28;3.53;;;2.23;;
17363;SDS011;8799;43.594;13.526;2023-02-28T07:55:57;5.97;;;2.80;;
17363;SDS011;8799;43.594;13.526;2023-02-28T07:58:26;4.87;;;2.50;;
17363;SDS011;8799;43.594;13.526;2023-02-28T08:00:54;4.03;;;2.17;;
17363;SDS011;8799;43.594;13.526;2023-02-28T08:03:23;6.57;;;2.60;;
17363;SDS011;8799;43.594;13.526;2023-02-28T08:05:51;4.77;;;2.10;;
17363;SDS011;8799;43.594;13.526;2023-02-28T08:08:19;5.37;;;2.70;;
17363;SDS011;8799;43.594;13.526;2023-02-28T08:10:49;3.80;;;1.90;;
17363;SDS011;8799;43.594;13.526;2023-02-28T08:13:17;6.00;;;2.10;;
17363;SDS011;8799;43.594;13.526;2023-02-28T08:15:45;5.93;;;2.37;;
17363;SDS011;8799;43.594;13.526;2023-02-28T08:18:13;3.50;;;2.10;;
17363;SDS011;8799;43.594;13.526;2023-02-28T08:20:42;4.57;;;2.23;;
17363;SDS011;8799;43.594;13.526;2023-02-28T08:23:09;3.83;;;2.03;;
17363;SDS011;8799;43.594;13.526;2023-02-28T08:25:37;4.83;;;2.43;;
17363;SDS011;8799;43.594;13.526;2023-02-28T08:28:06;3.83;;;2.10;;
17363;SDS011;8799;43.594;13.526;2023-02-28T08:30:34;3.37;;;2.00;;
17363;SDS011;8799;43.594;13.526;2023-02-28T08:33:02;7.60;;;2.23;;
17363;SDS011;8799;43.594;13.526;2023-02-28T08:35:30;4.63;;;2.50;;
17363;SDS011;8799;43.594;13.526;2023-02-28T08:37:59;6.80;;;2.27;;
17363;SDS011;8799;43.594;13.526;2023-02-28T08:40:26;5.43;;;2.13;;
17363;SDS011;8799;43.594;13.526;2023-02-28T08:42:54;5.33;;;2.17;;
17363;SDS011;8799;43.594;13.526;2023-02-28T08:45:24;5.20;;;2.00;;
17363;SDS011;8799;43.594;13.526;2023-02-28T08:47:54;8.03;;;2.40;;
17363;SDS011;8799;43.594;13.526;2023-02-28T08:50:22;3.70;;;1.90;;
17363;SDS011;8799;43.594;13.526;2023-02-28T08:52:50;2.97;;;1.80;;
17363;SDS011;8799;43.594;13.526;2023-02-28T08:55:18;5.40;;;2.73;;
17363;SDS011;8799;43.594;13.526;2023-02-28T08:57:46;4.17;;;2.43;;
17363;SDS011;8799;43.594;13.526;2023-02-28T09:00:15;5.87;;;2.10;;
17363;SDS011;8799;43.594;13.526;2023-02-28T09:02:45;3.13;;;1.97;;
17363;SDS011;8799;43.594;13.526;2023-02-28T09:05:13;4.87;;;2.23;;
17363;SDS011;8799;43.594;13.526;2023-02-28T09:07:41;4.53;;;2.10;;
17363;SDS011;8799;43.594;13.526;2023-02-28T09:10:10;4.37;;;2.13;;
17363;SDS011;8799;43.594;13.526;2023-02-28T09:12:38;5.40;;;2.47;;
17363;SDS011;8799;43.594;13.526;2023-02-28T09:15:07;4.10;;;2.07;;
17363;SDS011;8799;43.594;13.526;2023-02-28T09:17:36;2.50;;;1.90;;
17363;SDS011;8799;43.594;13.526;2023-02-28T09:20:07;6.60;;;2.53;;
17363;SDS011;8799;43.594;13.526;2023-02-28T09:22:36;2.77;;;2.03;;
17363;SDS011;8799;43.594;13.526;2023-02-28T09:25:04;3.57;;;1.90;;
17363;SDS011;8799;43.594;13.526;2023-02-28T09:27:33;3.67;;;2.03;;
17363;SDS011;8799;43.594;13.526;2023-02-28T09:30:01;3.13;;;2.07;;
17363;SDS011;8799;43.594;13.526;2023-02-28T09:32:30;3.23;;;1.90;;
17363;SDS011;8799;43.594;13.526;2023-02-28T09:34:59;3.97;;;2.30;;
17363;SDS011;8799;43.594;13.526;2023-02-28T09:37:29;5.47;;;2.40;;
17363;SDS011;8799;43.594;13.526;2023-02-28T09:39:57;3.73;;;2.30;;
17363;SDS011;8799;43.594;13.526;2023-02-28T09:42:28;4.10;;;2.23;;
17363;SDS011;8799;43.594;13.526;2023-02-28T09:44:58;7.57;;;2.23;;
17363;SDS011;8799;43.594;13.526;2023-02-28T09:47:32;3.50;;;2.20;;
17363;SDS011;8799;43.594;13.526;2023-02-28T09:50:03;3.67;;;2.07;;
17363;SDS011;8799;43.594;13.526;2023-02-28T09:52:42;3.43;;;2.20;;
17363;SDS011;8799;43.594;13.526;2023-02-28T09:55:18;4.37;;;2.10;;
17363;SDS011;8799;43.594;13.526;2023-02-28T09:57:49;5.37;;;1.97;;
17363;SDS011;8799;43.594;13.526;2023-02-28T10:00:18;2.63;;;1.87;;
17363;SDS011;8799;43.594;13.526;2023-02-28T10:03:03;5.03;;;2.30;;
17363;SDS011;8799;43.594;13.526;2023-02-28T10:05:38;3.20;;;2.00;;
17363;SDS011;8799;43.594;13.526;2023-02-28T10:08:12;2.60;;;1.73;;
17363;SDS011;8799;43.594;13.526;2023-02-28T10:10:42;4.23;;;1.73;;
17363;SDS011;8799;43.594;13.526;2023-02-28T10:13:13;3.60;;;2.00;;
17363;SDS011;8799;43.594;13.526;2023-02-28T10:15:47;3.70;;;2.20;;
17363;SDS011;8799;43.594;13.526;2023-02-28T10:18:21;2.70;;;2.03;;
17363;SDS011;8799;43.594;13.526;2023-02-28T10:20:52;3.63;;;2.00;;
17363;SDS011;8799;43.594;13.526;2023-02-28T10:23:25;3.47;;;2.30;;
17363;SDS011;8799;43.594;13.526;2023-02-28T10:25:57;4.13;;;2.40;;
17363;SDS011;8799;43.594;13.526;2023-02-28T10:28:28;2.30;;;1.80;;
17363;SDS011;8799;43.594;13.526;2023-02-28T10:30:57;3.53;;;1.80;;
17363;SDS011;8799;43.594;13.526;2023-02-28T10:33:28;3.53;;;2.10;;
17363;SDS011;8799;43.594;13.526;2023-02-28T10:35:57;3.83;;;2.37;;
17363;SDS011;8799;43.594;13.526;2023-02-28T10:38:27;3.87;;;2.10;;
17363;SDS011;8799;43.594;13.526;2023-02-28T10:41:05;4.90;;;2.00;;
17363;SDS011;8799;43.594;13.526;2023-02-28T10:43:34;2.37;;;1.90;;
17363;SDS011;8799;43.594;13.526;2023-02-28T10:46:04;4.97;;;2.10;;
17363;SDS011;8799;43.594;13.526;2023-02-28T10:48:40;5.00;;;2.30;;
17363;SDS011;8799;43.594;13.526;2023-02-28T10:51:11;4.20;;;2.37;;
17363;SDS011;8799;43.594;13.526;2023-02-28T10:53:46;2.70;;;2.00;;
17363;SDS011;8799;43.594;13.526;2023-02-28T10:56:16;2.13;;;1.83;;
17363;SDS011;8799;43.594;13.526;2023-02-28T10:58:50;5.67;;;1.97;;
17363;SDS011;8799;43.594;13.526;2023-02-28T11:01:20;2.53;;;1.90;;
17363;SDS011;8799;43.594;13.526;2023-02-28T11:03:48;3.67;;;2.10;;
17363;SDS011;8799;43.594;13.526;2023-02-28T11:06:17;3.47;;;2.23;;
17363;SDS011;8799;43.594;13.526;2023-02-28T11:08:51;4.27;;;1.93;;
17363;SDS011;8799;43.594;13.526;2023-02-28T11:11:20;3.53;;;2.00;;
17363;SDS011;8799;43.594;13.526;2023-02-28T11:13:51;4.53;;;2.00;;
17363;SDS011;8799;43.594;13.526;2023-02-28T11:16:22;3.53;;;2.20;;
17363;SDS011;8799;43.594;13.526;2023-02-28T11:19:03;5.83;;;2.10;;
17363;SDS011;8799;43.594;13.526;2023-02-28T11:21:34;3.50;;;2.33;;
17363;SDS011;8799;43.594;13.526;2023-02-28T11:24:12;3.23;;;2.13;;
17363;SDS011;8799;43.594;13.526;2023-02-28T11:26:46;4.13;;;2.20;;
17363;SDS011;8799;43.594;13.526;2023-02-28T11:29:19;3.17;;;1.93;;
17363;SDS011;8799;43.594;13.526;2023-02-28T11:32:03;3.53;;;2.23;;
17363;SDS011;8799;43.594;13.526;2023-02-28T11:34:40;4.97;;;2.03;;
17363;SDS011;8799;43.594;13.526;2023-02-28T11:37:11;3.83;;;2.10;;
17363;SDS011;8799;43.594;13.526;2023-02-28T11:39:43;3.53;;;1.87;;
17363;SDS011;8799;43.594;13.526;2023-02-28T11:42:16;3.13;;;2.30;;
17363;SDS011;8799;43.594;13.526;2023-02-28T11:45:08;4.17;;;2.27;;
17363;SDS011;8799;43.594;13.526;2023-02-28T11:47:47;3.97;;;2.00;;
17363;SDS011;8799;43.594;13.526;2023-02-28T11:50:26;4.27;;;2.30;;
17363;SDS011;8799;43.594;13.526;2023-02-28T11:53:04;4.40;;;2.37;;
17363;SDS011;8799;43.594;13.526;2023-02-28T11:55:43;6.43;;;2.27;;
17363;SDS011;8799;43.594;13.526;2023-02-28T11:58:17;3.53;;;1.97;;
17363;SDS011;8799;43.594;13.526;2023-02-28T12:01:23;5.87;;;2.20;;
17363;SDS011;8799;43.594;13.526;2023-02-28T12:04:03;4.83;;;2.30;;
17363;SDS011;8799;43.594;13.526;2023-02-28T12:06:40;3.07;;;2.00;;
17363;SDS011;8799;43.594;13.526;2023-02-28T12:09:20;3.93;;;2.00;;
17363;SDS011;8799;43.594;13.526;2023-02-28T12:12:05;3.53;;;2.40;;
17363;SDS011;8799;43.594;13.526;2023-02-28T12:17:45;6.70;;;2.33;;
17363;SDS011;8799;43.594;13.526;2023-02-28T12:20:23;5.37;;;2.53;;
17363;SDS011;8799;43.594;13.526;2023-02-28T12:23:00;6.60;;;2.30;;
17363;SDS011;8799;43.594;13.526;2023-02-28T12:25:50;4.90;;;2.20;;
17363;SDS011;8799;43.594;13.526;2023-02-28T12:28:30;5.70;;;2.97;;
17363;SDS011;8799;43.594;13.526;2023-02-28T12:31:01;3.20;;;1.83;;
17363;SDS011;8799;43.594;13.526;2023-02-28T12:33:36;3.73;;;2.03;;
17363;SDS011;8799;43.594;13.526;2023-02-28T12:36:11;3.57;;;2.00;;
17363;SDS011;8799;43.594;13.526;2023-02-28T12:38:45;3.80;;;2.00;;
17363;SDS011;8799;43.594;13.526;2023-02-28T12:41:16;3.53;;;2.10;;
17363;SDS011;8799;43.594;13.526;2023-02-28T12:43:50;3.27;;;2.20;;
17363;SDS011;8799;43.594;13.526;2023-02-28T12:46:23;2.60;;;1.77;;
17363;SDS011;8799;43.594;13.526;2023-02-28T12:48:57;8.20;;;2.70;;
17363;SDS011;8799;43.594;13.526;2023-02-28T12:51:29;5.73;;;2.77;;
17363;SDS011;8799;43.594;13.526;2023-02-28T12:53:59;4.83;;;2.03;;
17363;SDS011;8799;43.594;13.526;2023-02-28T12:56:42;3.30;;;2.00;;
17363;SDS011;8799;43.594;13.526;2023-02-28T12:59:17;4.87;;;2.50;;
17363;SDS011;8799;43.594;13.526;2023-02-28T13:02:09;3.27;;;2.03;;
17363;SDS011;8799;43.594;13.526;2023-02-28T13:05:07;3.67;;;2.40;;
17363;SDS011;8799;43.594;13.526;2023-02-28T13:10:51;3.33;;;1.87;;
17363;SDS011;8799;43.594;13.526;2023-02-28T13:13:22;4.70;;;2.63;;
17363;SDS011;8799;43.594;13.526;2023-02-28T13:16:06;7.50;;;2.23;;
17363;SDS011;8799;43.594;13.526;2023-02-28T13:18:35;3.90;;;2.17;;
17363;SDS011;8799;43.594;13.526;2023-02-28T13:21:04;4.07;;;2.23;;
17363;SDS011;8799;43.594;13.526;2023-02-28T13:23:57;5.40;;;2.23;;
17363;SDS011;8799;43.594;13.526;2023-02-28T13:29:41;5.50;;;2.23;;
17363;SDS011;8799;43.594;13.526;2023-02-28T13:32:27;4.73;;;1.87;;
17363;SDS011;8799;43.594;13.526;2023-02-28T13:35:14;8.40;;;2.40;;
17363;SDS011;8799;43.594;13.526;2023-02-28T13:38:21;4.03;;;2.00;;
17363;SDS011;8799;43.594;13.526;2023-02-28T13:44:12;5.13;;;2.20;;
17363;SDS011;8799;43.594;13.526;2023-02-28T13:49:47;7.70;;;2.57;;
17363;SDS011;8799;43.594;13.526;2023-02-28T13:52:17;5.43;;;2.47;;
17363;SDS011;8799;43.594;13.526;2023-02-28T13:54:51;5.20;;;2.10;;
17363;SDS011;8799;43.594;13.526;2023-02-28T13:57:28;8.47;;;2.60;;
17363;SDS011;8799;43.594;13.526;2023-02-28T14:00:14;6.23;;;2.07;;
17363;SDS011;8799;43.594;13.526;2023-02-28T14:02:53;7.43;;;2.50;;
17363;SDS011;8799;43.594;13.526;2023-02-28T14:05:47;12.93;;;1.97;;
17363;SDS011;8799;43.594;13.526;2023-02-28T14:08:36;7.10;;;2.13;;
17363;SDS011;8799;43.594;13.526;2023-02-28T14:11:23;10.40;;;2.70;;
17363;SDS011;8799;43.594;13.526;2023-02-28T14:13:53;8.33;;;2.10;;
17363;SDS011;8799;43.594;13.526;2023-02-28T14:16:21;8.40;;;2.00;;
17363;SDS011;8799;43.594;13.526;2023-02-28T14:18:54;4.80;;;1.97;;
17363;SDS011;8799;43.594;13.526;2023-02-28T14:21:26;7.63;;;2.00;;
17363;SDS011;8799;43.594;13.526;2023-02-28T14:27:08;5.60;;;2.40;;
17363;SDS011;8799;43.594;13.526;2023-02-28T14:29:54;3.60;;;1.90;;
17363;SDS011;8799;43.594;13.526;2023-02-28T14:32:47;10.37;;;2.00;;
17363;SDS011;8799;43.594;13.526;2023-02-28T14:35:36;8.00;;;1.57;;
17363;SDS011;8799;43.594;13.526;2023-02-28T14:38:19;5.13;;;1.87;;
17363;SDS011;8799;43.594;13.526;2023-02-28T14:40:51;5.17;;;2.00;;
17363;SDS011;8799;43.594;13.526;2023-02-28T14:43:22;3.10;;;1.73;;
17363;SDS011;8799;43.594;13.526;2023-02-28T14:45:52;4.33;;;1.83;;
17363;SDS011;8799;43.594;13.526;2023-02-28T14:48:23;7.10;;;1.67;;
17363;SDS011;8799;43.594;13.526;2023-02-28T14:50:53;6.70;;;2.23;;
17363;SDS011;8799;43.594;13.526;2023-02-28T14:53:25;4.93;;;2.47;;
17363;SDS011;8799;43.594;13.526;2023-02-28T14:55:55;4.10;;;1.80;;
17363;SDS011;8799;43.594;13.526;2023-02-28T14:58:24;2.43;;;1.57;;
17363;SDS011;8799;43.594;13.526;2023-02-28T15:00:54;2.17;;;1.50;;
17363;SDS011;8799;43.594;13.526;2023-02-28T15:03:28;4.47;;;1.63;;
17363;SDS011;8799;43.594;13.526;2023-02-28T15:05:59;4.73;;;1.70;;
17363;SDS011;8799;43.594;13.526;2023-02-28T15:08:30;3.80;;;1.77;;
17363;SDS011;8799;43.594;13.526;2023-02-28T15:11:01;2.10;;;1.53;;
17363;SDS011;8799;43.594;13.526;2023-02-28T15:13:34;5.37;;;1.90;;
17363;SDS011;8799;43.594;13.526;2023-02-28T15:16:06;4.60;;;1.90;;
17363;SDS011;8799;43.594;13.526;2023-02-28T15:18:40;4.30;;;1.87;;
17363;SDS011;8799;43.594;13.526;2023-02-28T15:21:12;4.13;;;2.20;;
17363;SDS011;8799;43.594;13.526;2023-02-28T15:23:44;3.07;;;1.63;;
17363;SDS011;8799;43.594;13.526;2023-02-28T15:26:16;3.97;;;1.67;;
17363;SDS011;8799;43.594;13.526;2023-02-28T15:28:46;7.40;;;2.20;;
17363;SDS011;8799;43.594;13.526;2023-02-28T15:31:20;3.33;;;1.93;;
17363;SDS011;8799;43.594;13.526;2023-02-28T15:33:54;3.43;;;1.80;;
17363;SDS011;8799;43.594;13.526;2023-02-28T15:36:24;2.47;;;1.43;;
17363;SDS011;8799;43.594;13.526;2023-02-28T15:38:56;2.50;;;1.50;;
17363;SDS011;8799;43.594;13.526;2023-02-28T15:41:25;2.53;;;1.67;;